Time;durP1;ratioP1;P1;durP2;ratioP2;P2;SDS_P1;SDS_P2;PMS_P1;PMS_P2;Temp;Humidity;BMP_temperature;BMP_pressure;BME280_temperature;BME280_humidity;BME280_pressure;Samples;Min_cycle;Max_cycle;Signal;HPM_P1;HPM_P2
2022/09/24 00:01:40;;;;;;;;;;;;;;;8.47;100.00;98259.05;1717761;82;24731;-89
2022/09/24 00:04:10;;;;;;;;;;;;;;;8.41;100.00;98262.05;1717146;82;22049;-88
2022/09/24 00:06:39;;;;;;;;;;;;;;;8.35;100.00;98261.97;1716216;83;26019;-88
2022/09/24 00:09:11;;;;;;;;;;;;;;;8.28;100.00;98261.13;1718057;82;24393;-89
2022/09/24 00:11:37;;;;;;;;;;;;;;;8.24;100.00;98265.69;1716185;82;20188;-88
2022/09/24 00:14:05;;;;;;;;;;;;;;;8.26;100.00;98268.20;1714219;82;20737;-88
2022/09/24 00:16:33;;;;;;;;;;;;;;;8.27;100.00;98263.37;1715889;82;22025;-89
2022/09/24 00:19:18;;;;;;;;;;;;;;;8.28;100.00;98258.53;1718824;82;26915;-88
2022/09/24 00:21:55;;;;;;;;;;;;;;;8.25;100.00;98261.31;1719511;82;24501;-88
2022/09/24 00:27:20;;;;;;;;;;;;;;;8.31;100.00;98251.38;1714720;82;24823;-88
2022/09/24 00:29:46;;;;;;;;;;;;;;;8.30;100.00;98251.45;1719968;82;22159;-88
2022/09/24 00:32:12;;;;;;;;;;;;;;;8.24;100.00;98247.90;1712568;82;20970;-88
2022/09/24 00:34:39;;;;;;;;;;;;;;;8.16;100.00;98248.87;1715212;82;24437;-89
2022/09/24 00:37:09;;;;;;;;;;;;;;;8.14;100.00;98233.78;1690477;82;33037;-88
2022/09/24 00:39:36;;;;;;;;;;;;;;;8.15;100.00;98237.60;1712261;82;24840;-85
2022/09/24 00:42:02;;;;;;;;;;;;;;;8.23;100.00;98230.15;1707333;82;21978;-84
2022/09/24 00:44:42;;;;;;;;;;;;;;;8.27;100.00;98237.30;1711559;82;21056;-84
2022/09/24 00:47:22;;;;;;;;;;;;;;;8.25;100.00;98230.87;1715765;82;24550;-85
2022/09/24 00:49:49;;;;;;;;;;;;;;;8.33;100.00;98235.17;1718031;82;20468;-84
2022/09/24 00:52:15;;;;;;;;;;;;;;;8.37;100.00;98226.67;1716429;82;24796;-84
2022/09/24 00:54:47;;;;;;;;;;;;;;;8.39;100.00;98224.81;1708625;82;22091;-84
2022/09/24 00:57:14;;;;;;;;;;;;;;;8.39;100.00;98223.05;1718044;82;26006;-83
2022/09/24 00:59:41;;;;;;;;;;;;;;;8.36;100.00;98219.78;1699716;82;24478;-84
2022/09/24 01:02:07;;;;;;;;;;;;;;;8.31;100.00;98216.17;1709724;82;20242;-83
2022/09/24 01:04:34;;;;;;;;;;;;;;;8.25;100.00;98218.30;1710367;82;25651;-83
2022/09/24 01:07:00;;;;;;;;;;;;;;;8.20;100.00;98215.98;1710135;82;20270;-84
2022/09/24 01:09:26;;;;;;;;;;;;;;;8.17;100.00;98211.45;1717229;82;26013;-83
2022/09/24 01:12:09;;;;;;;;;;;;;;;8.08;100.00;98205.49;1715655;82;25516;-84
2022/09/24 01:14:54;;;;;;;;;;;;;;;8.02;100.00;98204.61;1655232;86;20195;-83
2022/09/24 01:17:39;;;;;;;;;;;;;;;8.05;100.00;98200.03;1699580;82;24930;-83
2022/09/24 01:20:24;;;;;;;;;;;;;;;7.99;100.00;98196.04;1713207;82;22016;-83
2022/09/24 01:23:03;;;;;;;;;;;;;;;7.84;100.00;98190.96;1712550;82;25968;-84
2022/09/24 01:25:37;;;;;;;;;;;;;;;7.72;100.00;98188.65;1709166;82;25340;-83
2022/09/24 01:28:22;;;;;;;;;;;;;;;7.63;100.00;98193.14;1713900;82;20317;-84
2022/09/24 01:30:49;;;;;;;;;;;;;;;7.50;100.00;98188.30;1720214;82;24834;-84
2022/09/24 01:33:17;;;;;;;;;;;;;;;7.41;100.00;98184.50;1722531;82;22175;-84
2022/09/24 01:35:45;;;;;;;;;;;;;;;7.42;100.00;98195.73;1703261;82;26695;-84
2022/09/24 01:38:12;;;;;;;;;;;;;;;7.46;100.00;98190.73;1670830;83;24510;-84
2022/09/24 01:40:39;;;;;;;;;;;;;;;7.46;100.00;98192.88;1672384;83;20585;-88
2022/09/24 01:43:07;;;;;;;;;;;;;;;7.44;100.00;98192.11;1670711;85;24659;-88
2022/09/24 01:45:34;;;;;;;;;;;;;;;7.42;100.00;98183.55;1672009;84;22239;-88
2022/09/24 01:48:07;;;;;;;;;;;;;;;7.40;100.00;98185.43;1671993;85;26018;-88
2022/09/24 01:50:42;;;;;;;;;;;;;;;7.41;100.00;98183.67;1672120;83;24442;-88
2022/09/24 01:53:24;;;;;;;;;;;;;;;7.48;100.00;98175.83;1674079;84;20506;-88
2022/09/24 01:55:54;;;;;;;;;;;;;;;7.62;100.00;98185.41;1669682;85;24730;-87
2022/09/24 01:58:38;;;;;;;;;;;;;;;7.73;100.00;98180.37;1650573;85;22096;-87
2022/09/24 02:01:08;;;;;;;;;;;;;;;7.78;100.00;98184.83;1670942;84;26020;-88
2022/09/24 02:03:44;;;;;;;;;;;;;;;7.82;100.00;98184.53;1671698;85;24547;-89
2022/09/24 02:06:35;;;;;;;;;;;;;;;7.97;100.00;98182.72;1672212;84;20256;-90
2022/09/24 02:08:58;;;;;;;;;;;;;;;8.10;100.00;98183.62;1670817;84;24859;-89
2022/09/24 02:11:27;;;;;;;;;;;;;;;8.10;100.00;98175.81;1674088;84;20247;-88
2022/09/24 02:14:10;;;;;;;;;;;;;;;8.09;100.00;98178.05;1671092;84;26091;-89
2022/09/24 02:16:38;;;;;;;;;;;;;;;8.02;100.00;98178.05;1675883;84;24703;-89
2022/09/24 02:19:06;;;;;;;;;;;;;;;7.96;100.00;98181.88;1673136;84;20538;-86
2022/09/24 02:21:33;;;;;;;;;;;;;;;7.95;100.00;98176.33;1672256;84;24822;-86
2022/09/24 02:24:04;;;;;;;;;;;;;;;7.88;100.00;98182.01;1672356;84;22775;-87
2022/09/24 02:26:35;;;;;;;;;;;;;;;7.84;100.00;98185.29;1671918;84;26181;-89
2022/09/24 02:29:01;;;;;;;;;;;;;;;7.82;100.00;98181.93;1671719;84;24574;-88
2022/09/24 02:31:34;;;;;;;;;;;;;;;7.83;100.00;98179.70;1672168;83;20311;-88
2022/09/24 02:34:25;;;;;;;;;;;;;;;7.82;100.00;98179.33;1671614;84;24895;-89
2022/09/24 02:36:50;;;;;;;;;;;;;;;7.79;100.00;98180.83;1672245;84;22021;-89
2022/09/24 02:39:17;;;;;;;;;;;;;;;7.75;100.00;98176.72;1671860;84;26129;-89
2022/09/24 02:41:48;;;;;;;;;;;;;;;7.75;100.00;98183.23;1672357;83;24464;-88
2022/09/24 02:44:18;;;;;;;;;;;;;;;7.76;100.00;98177.56;1671679;84;20240;-89
2022/09/24 02:46:44;;;;;;;;;;;;;;;7.75;100.00;98181.94;1671635;84;24780;-89
2022/09/24 02:49:11;;;;;;;;;;;;;;;7.72;100.00;98181.30;1672065;85;22159;-89
2022/09/24 02:51:38;;;;;;;;;;;;;;;7.73;100.00;98172.56;1672008;84;26108;-88
2022/09/24 02:54:05;;;;;;;;;;;;;;;7.72;100.00;98183.44;1672079;83;24782;-89
2022/09/24 02:56:37;;;;;;;;;;;;;;;7.68;100.00;98172.02;1670694;84;20288;-89
2022/09/24 02:59:03;;;;;;;;;;;;;;;7.57;100.00;98171.37;1671855;84;24915;-89
2022/09/24 03:01:38;;;;;;;;;;;;;;;7.58;100.00;98169.15;1671988;84;22043;-89
2022/09/24 03:04:07;;;;;;;;;;;;;;;7.63;100.00;98169.70;1671953;83;26633;-89
2022/09/24 03:06:33;;;;;;;;;;;;;;;7.59;100.00;98162.98;1671867;83;24402;-89
2022/09/24 03:09:05;;;;;;;;;;;;;;;7.54;100.00;98151.56;1672148;84;20314;-89
2022/09/24 03:11:35;;;;;;;;;;;;;;;7.48;100.00;98150.63;1671447;84;24190;-88
2022/09/24 03:14:01;;;;;;;;;;;;;;;7.52;100.00;98150.00;1672003;84;21973;-89
2022/09/24 03:16:27;;;;;;;;;;;;;;;7.52;100.00;98149.53;1672073;84;21052;-89
2022/09/24 03:18:53;;;;;;;;;;;;;;;7.56;100.00;98150.17;1671007;84;20436;-89
2022/09/24 03:21:20;;;;;;;;;;;;;;;7.60;100.00;98146.90;1672140;83;20471;-89
2022/09/24 03:23:49;;;;;;;;;;;;;;;7.67;100.00;98144.29;1671757;83;25806;-89
2022/09/24 03:26:16;;;;;;;;;;;;;;;7.75;100.00;98148.07;1671647;83;22083;-88
2022/09/24 03:28:42;;;;;;;;;;;;;;;7.77;100.00;98141.47;1671718;83;26151;-88
2022/09/24 03:31:17;;;;;;;;;;;;;;;7.74;100.00;98140.38;1671646;84;20432;-89
2022/09/24 03:33:47;;;;;;;;;;;;;;;7.68;100.00;98139.45;1671796;84;20245;-89
2022/09/24 03:36:15;;;;;;;;;;;;;;;7.72;100.00;98141.77;1674169;82;24916;-88
2022/09/24 03:41:33;;;;;;;;;;;;;;;7.67;100.00;98139.92;1699118;82;25988;-90
2022/09/24 03:44:01;;;;;;;;;;;;;;;7.64;100.00;98131.47;1702828;83;24534;-88
2022/09/24 03:46:45;;;;;;;;;;;;;;;7.65;100.00;98129.22;1706589;83;20458;-88
2022/09/24 03:49:17;;;;;;;;;;;;;;;7.63;100.00;98126.73;1706234;83;24885;-89
2022/09/24 03:51:43;;;;;;;;;;;;;;;7.63;100.00;98129.33;1702084;82;22138;-89
2022/09/24 03:54:12;;;;;;;;;;;;;;;7.55;100.00;98128.96;1689188;83;26040;-88
2022/09/24 03:56:40;;;;;;;;;;;;;;;7.58;100.00;98127.48;1709721;82;24444;-88
2022/09/24 03:59:08;;;;;;;;;;;;;;;7.53;100.00;98132.11;1702786;83;20291;-88
2022/09/24 04:01:43;;;;;;;;;;;;;;;7.50;100.00;98131.86;1686110;82;25499;-89
2022/09/24 04:04:15;;;;;;;;;;;;;;;7.50;100.00;98129.72;1704820;83;22007;-89
2022/09/24 04:06:47;;;;;;;;;;;;;;;7.45;100.00;98130.47;1702518;82;26002;-89
2022/09/24 04:09:13;;;;;;;;;;;;;;;7.36;100.00;98129.28;1708229;82;24437;-88
2022/09/24 04:11:39;;;;;;;;;;;;;;;7.29;100.00;98129.28;1706085;82;20231;-89
2022/09/24 04:14:05;;;;;;;;;;;;;;;7.29;100.00;98133.66;1702432;82;20355;-88
2022/09/24 04:16:31;;;;;;;;;;;;;;;7.27;100.00;98138.94;1710267;82;22148;-88
2022/09/24 04:18:58;;;;;;;;;;;;;;;7.21;100.00;98133.27;1702466;82;26815;-88
2022/09/24 04:21:29;;;;;;;;;;;;;;;7.10;100.00;98132.16;1722815;81;20317;-89
2022/09/24 04:23:57;;;;;;;;;;;;;;;6.99;100.00;98131.97;1706324;82;20656;-89
2022/09/24 04:26:23;;;;;;;;;;;;;;;6.89;100.00;98126.95;1704809;82;24862;-89
2022/09/24 04:28:49;;;;;;;;;;;;;;;6.88;100.00;98123.97;1701605;83;20838;-89
2022/09/24 04:31:15;;;;;;;;;;;;;;;6.87;100.00;98125.39;1685652;82;20985;-89
2022/09/24 04:33:41;;;;;;;;;;;;;;;6.82;100.00;98128.73;1714549;82;20281;-89
2022/09/24 04:36:07;;;;;;;;;;;;;;;6.82;100.00;98122.23;1715836;81;20322;-89
2022/09/24 04:38:45;;;;;;;;;;;;;;;6.81;100.00;98113.59;1693848;83;24730;-89
2022/09/24 04:41:12;;;;;;;;;;;;;;;6.80;100.00;98118.87;1705548;82;22119;-89
2022/09/24 04:43:39;;;;;;;;;;;;;;;6.87;100.00;98116.28;1707275;82;25953;-89
2022/09/24 04:46:05;;;;;;;;;;;;;;;6.88;100.00;98122.67;1705948;82;24461;-89
2022/09/24 04:48:31;;;;;;;;;;;;;;;6.93;100.00;98121.92;1706521;82;20226;-84
2022/09/24 04:50:57;;;;;;;;;;;;;;;6.97;100.00;98123.44;1707231;82;20327;-84
2022/09/24 04:53:23;;;;;;;;;;;;;;;6.99;100.00;98123.33;1705589;82;22052;-84
2022/09/24 04:55:52;;;;;;;;;;;;;;;7.07;100.00;98121.95;1707205;82;25492;-84
2022/09/24 04:58:18;;;;;;;;;;;;;;;7.10;100.00;98121.75;1703776;82;24686;-84
2022/09/24 05:00:44;;;;;;;;;;;;;;;7.11;100.00;98119.52;1705337;83;20270;-84
2022/09/24 05:03:10;;;;;;;;;;;;;;;7.14;100.00;98121.95;1703262;82;20241;-84
2022/09/24 05:05:36;;;;;;;;;;;;;;;7.15;100.00;98126.67;1703813;82;20307;-84
2022/09/24 05:08:02;;;;;;;;;;;;;;;7.17;100.00;98121.38;1704300;82;21014;-84
2022/09/24 05:10:29;;;;;;;;;;;;;;;7.21;100.00;98117.66;1704802;82;20894;-88
2022/09/24 05:12:56;;;;;;;;;;;;;;;7.22;100.00;98114.12;1704964;82;20220;-88
2022/09/24 05:15:22;;;;;;;;;;;;;;;7.18;100.00;98120.00;1702426;82;24869;-88
2022/09/24 05:17:48;;;;;;;;;;;;;;;7.20;100.00;98114.70;1706578;82;20284;-89
2022/09/24 05:20:23;;;;;;;;;;;;;;;7.25;100.00;98115.25;1706242;82;26009;-89
2022/09/24 05:22:50;;;;;;;;;;;;;;;7.30;100.00;98115.80;1700271;83;24580;-88
2022/09/24 05:25:17;;;;;;;;;;;;;;;7.33;100.00;98111.70;1702867;82;20207;-89
2022/09/24 05:27:44;;;;;;;;;;;;;;;7.35;100.00;98115.05;1709522;82;24905;-90
2022/09/24 05:30:10;;;;;;;;;;;;;;;7.35;100.00;98121.56;1695016;83;21977;-88
2022/09/24 05:32:36;;;;;;;;;;;;;;;7.36;100.00;98119.34;1698914;82;26209;-89
2022/09/24 05:35:03;;;;;;;;;;;;;;;7.37;100.00;98119.68;1702013;83;20239;-88
2022/09/24 05:37:31;;;;;;;;;;;;;;;7.39;100.00;98125.17;1674559;84;20276;-88
2022/09/24 05:40:46;;;;;;;;;;;;;;;7.38;100.00;98114.85;1689224;82;24794;-89
2022/09/24 05:42:26;;;;;;;;;;;;;;;7.40;100.00;98118.20;1714925;81;22007;-88
2022/09/24 05:44:53;;;;;;;;;;;;;;;7.40;100.00;98119.51;1705385;83;26804;-89
2022/09/24 05:47:18;;;;;;;;;;;;;;;7.38;100.00;98113.09;1703633;82;24435;-89
2022/09/24 05:49:44;;;;;;;;;;;;;;;7.39;100.00;98110.02;1705151;82;20403;-88
2022/09/24 05:52:10;;;;;;;;;;;;;;;7.41;100.00;98109.47;1703667;83;20274;-88
2022/09/24 05:54:37;;;;;;;;;;;;;;;7.45;100.00;98111.78;1704704;82;21934;-89
2022/09/24 05:57:03;;;;;;;;;;;;;;;7.49;100.00;98113.72;1705002;82;25886;-89
2022/09/24 05:59:29;;;;;;;;;;;;;;;7.61;100.00;98112.12;1705936;83;20912;-88
2022/09/24 06:01:55;;;;;;;;;;;;;;;7.69;100.00;98113.30;1703493;83;20775;-88
2022/09/24 06:04:29;;;;;;;;;;;;;;;7.75;100.00;98107.70;1700839;84;20803;-88
2022/09/24 06:06:58;;;;;;;;;;;;;;;7.85;100.00;98112.72;1706324;83;22005;-88
2022/09/24 06:09:24;;;;;;;;;;;;;;;7.95;100.00;98109.89;1705024;83;21117;-88
2022/09/24 06:11:52;;;;;;;;;;;;;;;7.99;100.00;98120.94;1705672;82;20250;-88
2022/09/24 06:14:18;;;;;;;;;;;;;;;7.97;100.00;98109.30;1702530;82;20277;-88
2022/09/24 06:16:44;;;;;;;;;;;;;;;7.96;100.00;98109.42;1704889;83;24866;-84
2022/09/24 06:19:11;;;;;;;;;;;;;;;7.94;100.00;98109.98;1703847;82;21954;-84
2022/09/24 06:21:37;;;;;;;;;;;;;;;7.93;100.00;98113.51;1695977;83;26086;-84
2022/09/24 06:24:08;;;;;;;;;;;;;;;7.97;100.00;98115.81;1704564;82;20271;-84
2022/09/24 06:26:32;;;;;;;;;;;;;;;8.10;100.00;98115.87;1703704;82;20297;-84
2022/09/24 06:28:57;;;;;;;;;;;;;;;8.21;100.00;98121.69;1707114;82;24661;-85
2022/09/24 06:31:23;;;;;;;;;;;;;;;8.35;100.00;98123.78;1707887;83;20934;-85
2022/09/24 06:33:55;;;;;;;;;;;;;;;8.42;100.00;98120.77;1704941;83;26007;-85
2022/09/24 06:36:21;;;;;;;;;;;;;;;8.44;100.00;98124.13;1705678;83;25147;-86
2022/09/24 06:38:51;;;;;;;;;;;;;;;8.49;100.00;98120.74;1713624;82;20783;-86
2022/09/24 06:41:17;;;;;;;;;;;;;;;8.56;100.00;98122.85;1716260;82;24829;-85
2022/09/24 06:43:43;;;;;;;;;;;;;;;8.61;100.00;98121.23;1729668;81;20804;-85
2022/09/24 06:46:10;;;;;;;;;;;;;;;8.66;100.00;98117.84;1728528;81;26145;-84
2022/09/24 06:48:47;;;;;;;;;;;;;;;8.70;100.00;98118.00;1725866;82;20487;-85
2022/09/24 06:51:13;;;;;;;;;;;;;;;8.83;100.00;98120.16;1725889;81;20226;-85
2022/09/24 06:53:43;;;;;;;;;;;;;;;9.03;100.00;98117.48;1728488;82;20274;-85
2022/09/24 06:56:06;;;;;;;;;;;;;;;9.29;100.00;98124.34;1725950;81;22786;-85
2022/09/24 06:58:32;;;;;;;;;;;;;;;9.52;100.00;98124.89;1727152;81;21049;-85
2022/09/24 07:01:03;;;;;;;;;;;;;;;9.60;100.00;98127.78;1724741;81;20323;-85
2022/09/24 07:03:30;;;;;;;;;;;;;;;9.61;100.00;98122.92;1726139;81;20213;-85
2022/09/24 07:05:57;;;;;;;;;;;;;;;9.61;100.00;98118.16;1728542;82;25565;-85
2022/09/24 07:08:23;;;;;;;;;;;;;;;9.60;100.00;98129.08;1727964;81;21980;-85
2022/09/24 07:10:51;;;;;;;;;;;;;;;9.60;100.00;98121.75;1726251;82;21131;-85
2022/09/24 07:13:19;;;;;;;;;;;;;;;9.65;100.00;98124.36;1726995;82;24481;-85
2022/09/24 07:15:46;;;;;;;;;;;;;;;9.70;100.00;98120.14;1727237;81;20401;-85
2022/09/24 07:18:12;;;;;;;;;;;;;;;9.76;100.00;98124.09;1725602;82;24913;-85
2022/09/24 07:20:42;;;;;;;;;;;;;;;9.83;100.00;98131.84;1728181;82;20325;-85
2022/09/24 07:23:07;;;;;;;;;;;;;;;9.89;100.00;98128.32;1725841;81;26256;-85
2022/09/24 07:25:33;;;;;;;;;;;;;;;9.95;100.00;98133.11;1726774;81;24111;-87
2022/09/24 07:28:01;;;;;;;;;;;;;;;10.01;100.00;98129.22;1726939;81;20219;-87
2022/09/24 07:30:27;;;;;;;;;;;;;;;10.06;100.00;98129.25;1728607;81;24849;-86
2022/09/24 07:32:53;;;;;;;;;;;;;;;10.08;100.00;98130.45;1728003;82;20244;-86
2022/09/24 07:35:19;;;;;;;;;;;;;;;10.12;100.00;98131.89;1727756;81;26044;-87
2022/09/24 07:37:45;;;;;;;;;;;;;;;10.17;100.00;98133.73;1721256;82;25158;-87
2022/09/24 07:40:11;;;;;;;;;;;;;;;10.27;100.00;98135.19;1687877;84;20241;-87
2022/09/24 07:42:39;;;;;;;;;;;;;;;10.37;100.00;98142.72;1691823;83;20287;-87
2022/09/24 07:45:08;;;;;;;;;;;;;;;10.44;100.00;98134.79;1684455;83;21954;-86
2022/09/24 07:47:34;;;;;;;;;;;;;;;10.49;100.00;98140.52;1689511;84;26103;-87
2022/09/24 07:50:00;;;;;;;;;;;;;;;10.58;100.00;98141.63;1688603;83;20867;-86
2022/09/24 07:52:31;;;;;;;;;;;;;;;10.64;100.00;98151.14;1701986;83;20273;-86
2022/09/24 07:54:54;;;;;;;;;;;;;;;10.79;100.00;98145.25;1699498;83;24704;-87
2022/09/24 07:57:22;;;;;;;;;;;;;;;11.00;100.00;98147.55;1678189;83;20191;-86
2022/09/24 07:59:50;;;;;;;;;;;;;;;11.11;100.00;98147.57;1699551;82;23128;-87
2022/09/24 08:02:16;;;;;;;;;;;;;;;11.26;100.00;98154.72;1698241;83;25243;-86
2022/09/24 08:04:43;;;;;;;;;;;;;;;11.38;100.00;98149.84;1659385;84;20244;-86
2022/09/24 08:07:09;;;;;;;;;;;;;;;11.41;100.00;98148.28;1674163;85;24783;-87
2022/09/24 08:09:35;;;;;;;;;;;;;;;11.56;100.00;98154.98;1678225;84;21599;-87
2022/09/24 08:12:04;;;;;;;;;;;;;;;11.65;100.00;98160.80;1676115;84;26096;-87
2022/09/24 08:14:36;;;;;;;;;;;;;;;11.66;100.00;98157.23;1679511;84;24452;-87
2022/09/24 08:17:04;;;;;;;;;;;;;;;11.61;100.00;98159.38;1683329;84;20273;-87
2022/09/24 08:19:32;;;;;;;;;;;;;;;11.61;100.00;98150.20;1684051;83;24828;-87
2022/09/24 08:21:59;;;;;;;;;;;;;;;11.65;100.00;98147.69;1669841;84;21386;-87
2022/09/24 08:24:25;;;;;;;;;;;;;;;11.71;100.00;98146.38;1666805;85;26728;-86
2022/09/24 08:26:56;;;;;;;;;;;;;;;11.73;100.00;98147.94;1682142;83;24395;-86
2022/09/24 08:29:21;;;;;;;;;;;;;;;11.79;100.00;98143.16;1683491;83;20341;-87
2022/09/24 08:31:48;;;;;;;;;;;;;;;11.86;100.00;98143.04;1688170;83;25443;-87
2022/09/24 08:34:14;;;;;;;;;;;;;;;11.90;100.00;98143.14;1688391;83;22251;-87
2022/09/24 08:36:40;;;;;;;;;;;;;;;11.93;100.00;98142.44;1687431;83;26054;-86
2022/09/24 08:39:07;;;;;;;;;;;;;;;11.96;100.00;98141.34;1696686;82;20255;-86
2022/09/24 08:41:37;;;;;;;;;;;;;;;12.01;100.00;98134.77;1666570;84;20805;-87
2022/09/24 08:44:04;;;;;;;;;;;;;;;12.08;100.00;98138.58;1683051;83;24764;-87
2022/09/24 08:49:39;;;;;;;;;;;;;;;12.24;100.00;98137.33;1739137;81;26146;-88
2022/09/24 08:52:07;;;;;;;;;;;;;;;12.33;100.00;98126.91;1732947;82;24584;-88
2022/09/24 08:54:36;;;;;;;;;;;;;;;12.42;100.00;98124.03;1731274;81;20286;-87
2022/09/24 08:57:04;;;;;;;;;;;;;;;12.51;100.00;98120.64;1708977;83;24809;-88
2022/09/24 08:59:33;;;;;;;;;;;;;;;12.56;100.00;98114.52;1718548;82;22014;-88
2022/09/24 09:02:05;;;;;;;;;;;;;;;12.67;100.00;98104.44;1714151;83;26196;-88
2022/09/24 09:04:39;;;;;;;;;;;;;;;12.76;100.00;98105.84;1713983;83;24448;-88
2022/09/24 09:07:23;;;;;;;;;;;;;;;12.90;100.00;98102.04;1713053;83;20324;-88
2022/09/24 09:10:12;;;;;;;;;;;;;;;13.06;100.00;98093.20;1713364;83;24815;-87
2022/09/24 09:12:40;;;;;;;;;;;;;;;13.24;100.00;98097.41;1714107;83;22015;-88
2022/09/24 09:15:15;;;;;;;;;;;;;;;13.52;100.00;98097.17;1713182;83;25985;-88
2022/09/24 09:17:44;;;;;;;;;;;;;;;13.70;100.00;98095.54;1710431;83;24452;-87
2022/09/24 09:20:18;;;;;;;;;;;;;;;13.92;100.00;98090.53;1713117;82;20265;-88
2022/09/24 09:22:49;;;;;;;;;;;;;;;14.03;100.00;98086.46;1694035;84;24722;-87
2022/09/24 09:25:20;;;;;;;;;;;;;;;14.17;100.00;98088.70;1737818;82;22750;-88
2022/09/24 09:28:03;;;;;;;;;;;;;;;14.28;100.00;98085.94;1744271;81;25918;-88
2022/09/24 09:30:33;;;;;;;;;;;;;;;14.37;100.00;98077.71;1739319;82;25055;-88
2022/09/24 09:33:02;;;;;;;;;;;;;;;14.48;100.00;98065.23;1734985;81;20225;-88
2022/09/24 09:35:51;;;;;;;;;;;;;;;14.60;100.00;98070.70;1713258;83;24870;-87
2022/09/24 09:38:31;;;;;;;;;;;;;;;14.65;100.00;98071.11;1715919;82;22024;-87
2022/09/24 09:41:02;;;;;;;;;;;;;;;14.71;100.00;98067.08;1701566;82;25995;-88
2022/09/24 09:43:28;;;;;;;;;;;;;;;14.77;100.00;98065.67;1698487;82;24500;-87
2022/09/24 09:45:58;;;;;;;;;;;;;;;14.76;100.00;98066.64;1695030;83;20470;-88
2022/09/24 09:48:32;;;;;;;;;;;;;;;14.72;100.00;98057.37;1663514;83;20270;-88
2022/09/24 09:51:02;;;;;;;;;;;;;;;14.80;100.00;98056.98;1683674;84;22064;-87
2022/09/24 09:53:31;;;;;;;;;;;;;;;14.84;100.00;98059.67;1688580;84;26077;-88
2022/09/24 09:56:03;;;;;;;;;;;;;;;14.89;100.00;98056.13;1693722;83;24427;-88
2022/09/24 09:58:39;;;;;;;;;;;;;;;14.94;100.00;98057.87;1726551;81;20483;-87
2022/09/24 10:01:17;;;;;;;;;;;;;;;14.94;100.00;98062.31;1693810;83;24783;-87
2022/09/24 10:03:48;;;;;;;;;;;;;;;14.90;100.00;98066.17;1705294;83;22164;-87
2022/09/24 10:06:27;;;;;;;;;;;;;;;14.97;100.00;98065.96;1686955;83;23778;-88
2022/09/24 10:08:56;;;;;;;;;;;;;;;15.00;100.00;98061.73;1702700;83;24583;-87
2022/09/24 10:11:22;;;;;;;;;;;;;;;15.10;100.00;98068.28;1687745;83;20289;-88
2022/09/24 10:13:52;;;;;;;;;;;;;;;15.19;100.00;98062.97;1705512;83;25608;-88
2022/09/24 10:16:19;;;;;;;;;;;;;;;15.20;100.00;98067.27;1692586;83;22334;-88
2022/09/24 10:18:47;;;;;;;;;;;;;;;15.27;100.00;98059.13;1703723;83;26218;-87
2022/09/24 10:21:16;;;;;;;;;;;;;;;15.31;100.00;98064.45;1706632;82;24717;-87
2022/09/24 10:23:56;;;;;;;;;;;;;;;15.42;100.00;98058.98;1707073;83;20324;-88
2022/09/24 10:26:24;;;;;;;;;;;;;;;15.54;100.00;98051.74;1701599;83;25502;-88
2022/09/24 10:31:41;;;;;;;;;;;;;;;15.51;100.00;98045.39;1709781;83;26214;-87
2022/09/24 10:34:25;;;;;;;;;;;;;;;15.69;100.00;98052.06;1688595;82;24598;-88
2022/09/24 10:36:55;;;;;;;;;;;;;;;15.86;100.00;98045.50;1705038;82;20363;-88
2022/09/24 10:39:21;;;;;;;;;;;;;;;15.98;100.00;98047.43;1703650;81;24870;-87
2022/09/24 10:41:48;;;;;;;;;;;;;;;16.01;100.00;98049.76;1701629;83;22086;-88
2022/09/24 10:44:20;;;;;;;;;;;;;;;16.13;100.00;98043.28;1701055;83;26026;-88
2022/09/24 10:47:04;;;;;;;;;;;;;;;16.27;100.00;98040.58;1696888;83;24060;-87
2022/09/24 10:49:42;;;;;;;;;;;;;;;16.41;100.00;98035.25;1697477;83;20207;-88
2022/09/24 10:52:22;;;;;;;;;;;;;;;16.53;100.00;98031.39;1704537;82;24871;-88
2022/09/24 10:57:54;;;;;;;;;;;;;;;16.64;100.00;98033.30;1711757;82;25831;-88
2022/09/24 11:00:22;;;;;;;;;;;;;;;16.69;100.00;98024.93;1714638;81;24564;-88
2022/09/24 11:03:02;;;;;;;;;;;;;;;16.74;100.00;98023.97;1712969;82;20355;-88
2022/09/24 11:05:54;;;;;;;;;;;;;;;16.83;100.00;98023.52;1708206;82;25271;-88
2022/09/24 11:08:42;;;;;;;;;;;;;;;16.86;100.00;98031.95;1704099;82;22095;-88
2022/09/24 11:11:25;;;;;;;;;;;;;;;16.86;100.00;98026.66;1713885;81;26755;-88
2022/09/24 11:14:10;;;;;;;;;;;;;;;16.86;100.00;98022.70;1684991;83;24530;-88
2022/09/24 11:16:59;;;;;;;;;;;;;;;16.93;100.00;98024.23;1679092;84;20275;-88
2022/09/24 11:19:44;;;;;;;;;;;;;;;16.92;100.00;98025.20;1684642;83;24892;-88
2022/09/24 11:22:27;;;;;;;;;;;;;;;16.86;100.00;98021.87;1707008;84;22190;-87
2022/09/24 11:25:23;;;;;;;;;;;;;;;16.77;100.00;98022.32;1702126;84;26251;-88
2022/09/24 11:28:08;;;;;;;;;;;;;;;16.72;100.00;98020.64;1702182;84;24447;-88
2022/09/24 11:30:45;;;;;;;;;;;;;;;16.80;100.00;98018.55;1705901;83;20262;-88
2022/09/24 11:33:33;;;;;;;;;;;;;;;16.77;100.00;98018.36;1680143;84;24914;-88
2022/09/24 11:36:07;;;;;;;;;;;;;;;16.79;100.00;98016.89;1703949;84;21969;-88
2022/09/24 11:38:50;;;;;;;;;;;;;;;16.77;100.00;98022.32;1701614;83;26079;-88
2022/09/24 11:41:25;;;;;;;;;;;;;;;16.76;100.00;98022.47;1700139;83;24381;-87
2022/09/24 11:44:10;;;;;;;;;;;;;;;16.75;100.00;98020.31;1700782;83;20257;-88
2022/09/24 11:46:55;;;;;;;;;;;;;;;16.77;100.00;98015.72;1718732;82;24849;-88
2022/09/24 11:49:44;;;;;;;;;;;;;;;16.84;100.00;98012.80;1643018;84;20564;-88
2022/09/24 11:52:16;;;;;;;;;;;;;;;16.91;100.00;98017.77;1697361;83;25773;-87
2022/09/24 11:54:44;;;;;;;;;;;;;;;16.99;100.00;98017.00;1695991;83;25857;-87
2022/09/24 11:57:14;;;;;;;;;;;;;;;17.03;100.00;98017.84;1701026;83;20227;-87
2022/09/24 11:59:51;;;;;;;;;;;;;;;17.02;100.00;98021.46;1701208;83;24833;-87
2022/09/24 12:02:25;;;;;;;;;;;;;;;16.99;100.00;98017.83;1707060;83;22019;-87
2022/09/24 12:04:55;;;;;;;;;;;;;;;16.94;100.00;98020.12;1704863;83;26071;-87
2022/09/24 12:07:32;;;;;;;;;;;;;;;16.97;100.00;98014.98;1699430;83;25520;-87
2022/09/24 12:10:06;;;;;;;;;;;;;;;16.89;100.00;98015.80;1700176;83;20260;-87
2022/09/24 12:12:35;;;;;;;;;;;;;;;16.89;100.00;98018.44;1704112;82;24810;-88
2022/09/24 12:15:18;;;;;;;;;;;;;;;16.91;100.00;98020.94;1700815;82;22065;-88
2022/09/24 12:17:58;;;;;;;;;;;;;;;16.94;100.00;98017.96;1707733;83;26039;-88
2022/09/24 12:20:28;;;;;;;;;;;;;;;16.99;100.00;98009.89;1700041;83;24268;-87
2022/09/24 12:22:58;;;;;;;;;;;;;;;17.07;100.00;98010.44;1704360;83;20336;-87
2022/09/24 12:25:28;;;;;;;;;;;;;;;17.14;100.00;98005.66;1701374;83;24937;-87
2022/09/24 12:27:56;;;;;;;;;;;;;;;17.30;100.00;98004.06;1695843;83;21953;-88
2022/09/24 12:33:29;;;;;;;;;;;;;;;17.48;100.00;98002.98;1704261;83;24569;-84
2022/09/24 12:36:03;;;;;;;;;;;;;;;17.51;100.00;97998.68;1703113;83;20192;-84
2022/09/24 12:38:34;;;;;;;;;;;;;;;17.53;100.00;97998.53;1704677;83;24813;-87
2022/09/24 12:41:17;;;;;;;;;;;;;;;17.54;100.00;97994.41;1714724;82;22689;-88
2022/09/24 12:43:44;;;;;;;;;;;;;;;17.57;100.00;97994.56;1708310;82;26302;-87
2022/09/24 12:46:15;;;;;;;;;;;;;;;17.52;100.00;97994.22;1695684;83;24511;-87
2022/09/24 12:48:44;;;;;;;;;;;;;;;17.54;100.00;97989.12;1710801;82;20147;-87
2022/09/24 12:51:11;;;;;;;;;;;;;;;17.67;100.00;97984.72;1702414;82;24719;-87
2022/09/24 12:53:42;;;;;;;;;;;;;;;17.72;100.00;97982.41;1705537;82;22041;-88
2022/09/24 12:56:15;;;;;;;;;;;;;;;17.61;100.00;97976.10;1683159;82;21859;-88
2022/09/24 12:58:42;;;;;;;;;;;;;;;17.64;100.00;97981.06;1703813;83;24324;-88
2022/09/24 13:01:16;;;;;;;;;;;;;;;17.67;100.00;97982.08;1702745;82;20293;-87
2022/09/24 13:03:47;;;;;;;;;;;;;;;17.73;100.00;97981.39;1705550;82;24784;-87
2022/09/24 13:06:21;;;;;;;;;;;;;;;17.73;100.00;97977.95;1703287;82;22002;-87
2022/09/24 13:08:49;;;;;;;;;;;;;;;17.68;100.00;97978.91;1703251;81;26046;-87
2022/09/24 13:11:26;;;;;;;;;;;;;;;17.60;100.00;97976.26;1697318;82;24089;-87
2022/09/24 13:14:10;;;;;;;;;;;;;;;17.60;100.00;97967.00;1706111;82;20166;-87
2022/09/24 13:16:38;;;;;;;;;;;;;;;17.64;100.00;97966.50;1708518;82;24780;-86
2022/09/24 13:19:08;;;;;;;;;;;;;;;17.68;100.00;97970.96;1705895;81;21905;-87